Time;durP1;ratioP1;P1;durP2;ratioP2;P2;SDS_P1;SDS_P2;PMS_P1;PMS_P2;Temp;Humidity;BMP_temperature;BMP_pressure;BME280_temperature;BME280_humidity;BME280_pressure;Samples;Min_cycle;Max_cycle;Signal;HPM_P1;HPM_P2
2023/05/12 00:00:38;;;;;;;10.18;4.93;;;;;;;14.51;64.37;99176.91;4177237;34;33658;-90
2023/05/12 00:04:50;;;;;;;8.52;4.40;;;;;;;14.59;64.29;99169.91;4184318;34;34207;-89
2023/05/12 00:07:55;;;;;;;7.53;4.30;;;;;;;14.24;65.06;99169.09;4168687;34;33445;-90
2023/05/12 00:10:49;;;;;;;7.68;4.43;;;;;;;13.89;65.57;99167.41;4197299;34;34543;-88
2023/05/12 00:13:55;;;;;;;7.40;5.07;;;;;;;13.80;65.50;99176.09;4204658;34;33574;-91
2023/05/12 00:17:21;;;;;;;9.27;5.12;;;;;;;13.77;66.69;99168.28;4198785;34;33323;-90
2023/05/12 00:20:27;;;;;;;;;;;;;;;;;;;;;
2023/05/12 00:23:16;;;;;;;;;;;;;;;;;;;;;
2023/05/12 00:26:45;;;;;;;8.77;5.72;;;;;;;13.07;68.92;99163.84;4179376;34;35402;-91
2023/05/12 00:30:02;;;;;;;9.48;5.87;;;;;;;13.03;69.22;99162.09;4212671;34;33319;-90
2023/05/12 00:33:09;;;;;;;8.77;5.57;;;;;;;12.69;70.32;99161.09;4217463;33;35591;-89
2023/05/12 00:36:15;;;;;;;8.77;5.90;;;;;;;12.95;70.02;99153.38;4237130;33;33753;-91
2023/05/12 00:39:29;;;;;;;8.02;5.82;;;;;;;12.63;70.30;99154.13;4223084;33;34200;-89
2023/05/12 00:42:42;;;;;;;10.20;5.50;;;;;;;12.77;71.17;99159.41;4246273;33;34433;-90
2023/05/12 00:46:03;;;;;;;11.18;6.37;;;;;;;12.76;70.54;99157.63;4244405;33;33624;-89
2023/05/12 00:57:06;;;;;;;7.32;5.25;;;;;;;12.69;71.56;99150.69;4221539;33;33636;-91
2023/05/12 01:00:08;;;;;;;8.45;5.22;;;;;;;12.87;71.08;99155.06;4256359;33;33310;-91
2023/05/12 01:04:33;;;;;;;;;;;;;;;;;;;;;
2023/05/12 01:08:08;;;;;;;6.97;4.62;;;;;;;12.82;70.13;99149.00;4218384;33;33562;-90
2023/05/12 01:11:45;;;;;;;7.32;4.95;;;;;;;12.69;70.61;99139.41;4194827;34;35007;-90
2023/05/12 01:19:03;;;;;;;7.80;5.78;;;;;;;12.66;71.52;99151.53;4245421;33;34949;-91
2023/05/12 01:22:33;;;;;;;8.90;6.60;;;;;;;12.63;71.45;99155.87;4225288;33;34009;-90
2023/05/12 01:26:28;;;;;;;7.35;5.45;;;;;;;12.70;71.67;99164.56;4175758;34;34253;-89
2023/05/12 01:30:12;;;;;;;9.65;5.93;;;;;;;12.19;73.54;99153.91;4170349;34;32796;-90
2023/05/12 01:33:54;;;;;;;9.32;6.30;;;;;;;12.22;73.37;99151.31;4175411;34;34375;-90
2023/05/12 01:37:17;;;;;;;7.85;6.03;;;;;;;12.25;73.76;99153.06;4151394;34;35787;-90
2023/05/12 01:40:07;;;;;;;14.63;7.60;;;;;;;12.09;74.59;99157.31;4155986;34;33346;-90
2023/05/12 01:43:00;;;;;;;;;;;;;;;;;;;;;
2023/05/12 01:45:42;;;;;;;8.68;6.10;;;;;;;12.17;74.42;99155.63;4138964;34;33989;-90
2023/05/12 01:48:36;;;;;;;28.87;7.72;;;;;;;12.36;73.67;99162.66;4152921;34;33422;-89
2023/05/12 01:54:22;;;;;;;10.13;6.22;;;;;;;12.31;73.75;99158.28;4162467;34;34719;-92
2023/05/12 01:57:16;;;;;;;10.40;6.12;;;;;;;12.39;74.85;99172.22;4167017;34;33691;-90
2023/05/12 02:00:09;;;;;;;10.00;5.82;;;;;;;12.53;74.27;99165.34;4165237;34;34463;-91
2023/05/12 02:03:32;;;;;;;8.88;5.12;;;;;;;12.41;74.60;99168.75;4205818;34;33550;-90
2023/05/12 02:06:13;;;;;;;12.80;5.82;;;;;;;12.15;74.78;99173.78;4221754;33;33882;-89
2023/05/12 02:09:33;;;;;;;7.93;5.70;;;;;;;12.21;75.28;99174.72;4236065;33;34191;-90
2023/05/12 02:12:33;;;;;;;8.77;5.70;;;;;;;12.71;73.69;99174.09;4223473;33;33057;-90
2023/05/12 02:15:49;;;;;;;6.93;5.37;;;;;;;12.55;74.56;99175.78;4256966;33;33269;-91
2023/05/12 02:18:51;;;;;;;9.18;4.90;;;;;;;12.33;75.11;99166.97;4237224;33;33649;-91
2023/05/12 02:21:47;;;;;;;7.87;5.62;;;;;;;12.40;74.97;99172.22;4252732;33;35955;-91
2023/05/12 02:25:03;;;;;;;8.18;5.62;;;;;;;12.40;75.43;99174.81;4242203;33;33857;-88
2023/05/12 02:28:11;;;;;;;10.20;5.72;;;;;;;12.09;75.97;99178.97;4231827;33;34068;-87
2023/05/12 02:31:09;;;;;;;8.75;5.95;;;;;;;12.24;75.79;99173.00;4230323;33;33562;-90
2023/05/12 02:33:55;;;;;;;10.38;7.00;;;;;;;12.34;75.70;99176.50;4255203;33;34278;-90
2023/05/12 02:36:48;;;;;;;8.68;5.45;;;;;;;11.73;77.39;99183.84;4255935;33;35323;-89
2023/05/12 02:39:40;;;;;;;7.37;5.60;;;;;;;11.60;78.63;99188.06;4240918;33;33217;-90
2023/05/12 02:42:34;;;;;;;9.80;5.93;;;;;;;11.85;77.69;99179.63;4238390;33;33156;-90
2023/05/12 02:45:51;;;;;;;7.82;5.22;;;;;;;11.96;77.76;99178.87;4252374;33;34277;-90
2023/05/12 02:49:13;;;;;;;9.07;6.10;;;;;;;11.82;78.20;99178.72;4271099;33;34093;-90
2023/05/12 02:52:05;;;;;;;9.20;6.05;;;;;;;12.12;77.15;99172.91;4272829;33;35302;-89
2023/05/12 02:55:09;;;;;;;7.35;5.05;;;;;;;12.16;76.57;99179.88;4279992;33;33925;-92
2023/05/12 02:57:46;;;;;;;9.07;5.80;;;;;;;12.08;76.69;99177.22;4272234;33;33620;-90
2023/05/12 03:00:45;;;;;;;8.77;5.57;;;;;;;11.79;78.16;99174.38;4261849;33;33603;-90
2023/05/12 03:04:02;;;;;;;8.70;6.43;;;;;;;11.79;78.58;99182.19;4276104;33;34007;-90
2023/05/12 03:07:07;;;;;;;8.07;5.90;;;;;;;11.93;78.30;99179.69;4277312;33;33620;-89
2023/05/12 03:10:11;;;;;;;9.30;6.07;;;;;;;12.10;77.38;99179.84;4258466;33;33702;-91
2023/05/12 03:13:04;;;;;;;9.75;6.35;;;;;;;12.02;78.01;99187.56;4262444;33;34098;-90
2023/05/12 03:16:15;;;;;;;10.32;6.22;;;;;;;12.07;78.25;99187.59;4275442;33;33340;-89
2023/05/12 03:19:03;;;;;;;9.25;6.30;;;;;;;11.76;79.26;99176.94;4267656;33;33260;-90
2023/05/12 03:22:09;;;;;;;9.48;6.55;;;;;;;12.06;78.87;99178.94;4262024;33;33951;-90
2023/05/12 03:24:50;;;;;;;10.20;6.40;;;;;;;12.08;78.25;99176.34;4278694;33;33483;-91
2023/05/12 03:27:41;;;;;;;8.35;7.30;;;;;;;12.40;76.94;99181.75;4272288;33;33295;-89
2023/05/12 03:30:32;;;;;;;9.90;6.30;;;;;;;12.04;77.77;99185.84;4269553;33;33699;-89
2023/05/12 03:33:38;;;;;;;11.55;7.40;;;;;;;11.88;78.42;99184.00;4272418;33;33895;-91
2023/05/12 03:36:36;;;;;;;8.50;6.45;;;;;;;11.91;78.36;99182.28;4275210;33;33974;-89
2023/05/12 03:39:15;;;;;;;10.63;6.65;;;;;;;12.15;77.69;99181.59;4268649;33;33406;-90
2023/05/12 03:41:53;;;;;;;10.02;7.15;;;;;;;12.08;77.64;99181.53;4272617;33;33686;-91
2023/05/12 03:45:13;;;;;;;10.13;7.20;;;;;;;12.02;78.46;99187.56;4259605;33;33701;-91
2023/05/12 03:48:20;;;;;;;8.95;6.00;;;;;;;12.22;77.67;99184.25;4243032;33;33398;-90
2023/05/12 03:51:09;;;;;;;10.40;6.15;;;;;;;12.43;76.62;99178.31;4242641;33;33201;-91
2023/05/12 03:54:11;;;;;;;7.47;5.80;;;;;;;12.14;77.57;99185.06;4264190;33;34222;-90
2023/05/12 03:57:43;;;;;;;;;;;;;;;;;;;;;
2023/05/12 04:00:45;;;;;;;9.75;6.57;;;;;;;12.33;77.17;99190.38;4254032;33;34363;-91
2023/05/12 04:03:51;;;;;;;11.10;6.78;;;;;;;12.15;78.01;99197.19;4259685;33;33605;-89
2023/05/12 04:07:23;;;;;;;;;;;;;;;;;;;;;
2023/05/12 04:11:08;;;;;;;;;;;;;;;;;;;;;
2023/05/12 04:14:00;;;;;;;8.93;6.03;;;;;;;12.05;79.75;99190.22;4281272;33;33307;-90
2023/05/12 04:16:57;;;;;;;9.48;6.93;;;;;;;12.02;78.97;99192.78;4283232;33;33202;-91
2023/05/12 04:19:55;;;;;;;7.65;6.10;;;;;;;12.16;78.86;99195.47;4276703;33;33604;-92
2023/05/12 04:22:57;;;;;;;8.88;6.47;;;;;;;11.87;79.99;99208.25;4260101;33;33783;-91
2023/05/12 04:25:51;;;;;;;8.98;7.00;;;;;;;12.02;79.33;99202.31;4265382;33;33545;-91
2023/05/12 04:28:28;;;;;;;8.73;6.18;;;;;;;11.83;80.54;99209.06;4266139;33;33187;-91
2023/05/12 04:31:31;;;;;;;9.40;6.47;;;;;;;12.06;79.82;99210.13;4273075;33;33260;-91
2023/05/12 04:34:13;;;;;;;10.95;6.57;;;;;;;11.87;80.57;99208.25;4282888;33;33767;-91
2023/05/12 04:37:39;;;;;;;9.10;6.53;;;;;;;12.05;80.08;99208.41;4274726;33;33893;-91
2023/05/12 04:41:05;;;;;;;9.55;6.50;;;;;;;11.95;80.42;99214.38;4281628;33;34772;-91
2023/05/12 04:43:50;;;;;;;8.93;7.10;;;;;;;11.77;81.41;99214.19;4281191;33;34004;-89
2023/05/12 04:47:05;;;;;;;9.20;6.50;;;;;;;12.22;79.77;99207.63;4271592;33;33419;-92
2023/05/12 04:49:54;;;;;;;9.63;6.10;;;;;;;12.00;80.42;99204.00;4273230;33;33677;-91
2023/05/12 04:52:32;;;;;;;9.55;6.62;;;;;;;12.07;80.09;99206.66;4271714;33;32727;-89
2023/05/12 04:55:02;;;;;;;9.27;6.78;;;;;;;11.80;80.35;99206.41;4259842;33;33369;-91
2023/05/12 05:02:02;;;;;;;14.10;7.18;;;;;;;11.60;83.00;99217.50;4279481;33;33804;-90
2023/05/12 05:04:36;;;;;;;9.30;7.10;;;;;;;11.69;82.43;99220.16;4271967;33;32811;-89
2023/05/12 05:07:08;;;;;;;8.77;6.35;;;;;;;11.83;82.04;99214.25;4273554;33;33628;-87
2023/05/12 05:09:45;;;;;;;10.95;7.15;;;;;;;11.90;81.45;99209.16;4269871;33;34482;-91
2023/05/12 05:12:15;;;;;;;9.57;6.45;;;;;;;12.31;80.39;99218.09;4272773;33;33194;-90
2023/05/12 05:14:58;;;;;;;9.38;6.55;;;;;;;12.40;79.30;99215.56;4284836;33;32822;-90
2023/05/12 05:17:33;;;;;;;7.80;6.43;;;;;;;12.50;78.99;99217.38;4271901;33;33423;-87
2023/05/12 05:27:09;;;;;;;11.02;6.85;;;;;;;12.35;79.49;99225.03;4286095;33;33228;-91
2023/05/12 05:30:18;;;;;;;8.63;6.53;;;;;;;12.06;80.24;99224.84;4281349;33;33376;-90
2023/05/12 05:32:51;;;;;;;9.52;6.57;;;;;;;12.21;79.10;99221.50;4272620;33;34685;-94
2023/05/12 05:35:26;;;;;;;10.52;6.43;;;;;;;12.28;78.43;99221.56;4258283;33;34315;-89
2023/05/12 05:38:04;;;;;;;31.73;7.32;;;;;;;12.17;79.68;99218.88;4269607;33;33844;-94
2023/05/12 05:40:45;;;;;;;9.55;7.12;;;;;;;11.62;81.87;99235.69;4283187;33;34067;-91
2023/05/12 05:43:51;;;;;;;11.10;7.28;;;;;;;11.82;81.28;99235.84;4261543;33;34029;-92
2023/05/12 05:46:57;;;;;;;9.67;7.03;;;;;;;12.27;79.52;99224.13;4256905;33;33724;-92
2023/05/12 05:49:50;;;;;;;9.43;7.05;;;;;;;12.35;78.98;99235.44;4256605;33;32665;-91
2023/05/12 05:53:05;;;;;;;13.13;7.50;;;;;;;12.09;79.93;99236.16;4239206;33;33205;-91
2023/05/12 05:55:48;;;;;;;12.93;7.55;;;;;;;12.22;80.05;99237.09;4235197;33;34170;-92
2023/05/12 05:59:13;;;;;;;14.25;8.48;;;;;;;12.18;79.63;99237.94;4253824;33;33455;-92
2023/05/12 06:02:12;;;;;;;10.32;7.72;;;;;;;12.00;80.36;99238.66;4236778;33;33168;-92
2023/05/12 06:05:40;;;;;;;12.55;7.72;;;;;;;12.09;80.56;99243.94;4251727;33;34072;-91
2023/05/12 06:08:42;;;;;;;11.15;8.07;;;;;;;12.11;80.52;99238.75;4247368;33;34229;-89
2023/05/12 06:11:44;;;;;;;10.43;7.85;;;;;;;12.32;79.25;99233.72;4230105;33;33486;-89
2023/05/12 06:14:32;;;;;;;12.32;8.00;;;;;;;12.32;79.06;99240.63;4251339;33;34076;-92
2023/05/12 06:17:43;;;;;;;10.95;7.70;;;;;;;12.27;79.60;99244.91;4254951;33;33828;-91
2023/05/12 06:20:30;;;;;;;11.88;8.13;;;;;;;12.58;78.47;99243.41;4282123;33;34774;-91
2023/05/12 06:23:26;;;;;;;10.23;7.93;;;;;;;12.40;78.06;99250.22;4271357;33;34071;-92
2023/05/12 06:26:11;;;;;;;11.52;7.22;;;;;;;11.98;79.35;99247.31;4283375;33;34534;-91
2023/05/12 06:29:16;;;;;;;10.57;7.05;;;;;;;11.98;80.26;99240.38;4273653;33;33944;-90
2023/05/12 06:32:07;;;;;;;9.30;7.70;;;;;;;12.47;78.25;99250.28;4285179;33;33005;-92
2023/05/12 06:35:19;;;;;;;10.20;7.90;;;;;;;12.11;78.35;99243.94;4284522;33;33341;-92
2023/05/12 06:38:49;;;;;;;11.57;8.35;;;;;;;12.08;79.22;99243.91;4274535;33;32919;-90
2023/05/12 06:41:45;;;;;;;10.35;7.75;;;;;;;12.44;78.54;99243.31;4225208;33;33445;-92
2023/05/12 06:44:50;;;;;;;13.65;7.45;;;;;;;12.39;78.99;99247.63;4263886;33;34552;-88
2023/05/12 06:48:27;;;;;;;10.07;7.72;;;;;;;12.08;79.62;99244.78;4269379;33;34114;-90
2023/05/12 06:52:27;;;;;;;;;;;;;;;;;;;;;
2023/05/12 06:55:55;;;;;;;;;;;;;;;;;;;;;
2023/05/12 06:59:24;;;;;;;9.80;7.70;;;;;;;12.72;77.27;99243.47;4288969;33;34866;-92
2023/05/12 07:02:23;;;;;;;12.00;8.27;;;;;;;12.53;77.71;99243.34;4265225;33;33920;-93
2023/05/12 07:06:10;;;;;;;9.05;7.87;;;;;;;12.39;79.07;99250.22;4280274;33;33866;-92
2023/05/12 07:09:17;;;;;;;13.38;8.48;;;;;;;12.85;77.73;99250.50;4283772;33;33206;-92
2023/05/12 07:12:50;;;;;;;11.38;7.68;;;;;;;12.58;78.24;99246.00;4251775;33;33390;-92
2023/05/12 07:16:14;;;;;;;;;;;;;;;;;;;;;
2023/05/12 07:19:16;;;;;;;10.88;8.68;;;;;;;12.81;76.81;99251.34;4258278;33;33186;-90
2023/05/12 07:21:49;;;;;;;12.68;9.07;;;;;;;13.00;76.87;99255.75;4263787;33;33280;-92
2023/05/12 07:24:29;;;;;;;10.75;8.02;;;;;;;13.21;76.17;99254.09;4259093;33;34111;-92
2023/05/12 07:27:09;;;;;;;11.85;8.27;;;;;;;13.30;76.01;99247.22;4290623;33;33883;-92
2023/05/12 07:29:49;;;;;;;12.55;8.30;;;;;;;13.15;75.91;99245.41;4293436;33;33233;-92
2023/05/12 07:32:32;;;;;;;12.05;9.20;;;;;;;13.05;76.31;99254.03;4281552;33;33560;-90
2023/05/12 07:35:20;;;;;;;10.00;8.23;;;;;;;13.36;76.75;99246.37;4190318;33;2969973;-89
2023/05/12 07:38:02;;;;;;;11.82;8.38;;;;;;;13.29;75.41;99242.00;4277210;33;33989;-93
2023/05/12 07:41:10;;;;;;;12.18;8.65;;;;;;;12.89;76.66;99245.31;4285635;33;34277;-90
2023/05/12 07:44:08;;;;;;;12.10;8.48;;;;;;;13.23;76.14;99248.06;4283585;33;34771;-90
2023/05/12 07:46:54;;;;;;;10.93;8.07;;;;;;;12.92;76.28;99249.66;4282271;33;34018;-91
2023/05/12 07:49:30;;;;;;;11.32;8.10;;;;;;;12.90;76.77;99259.19;4281560;33;33364;-91
2023/05/12 07:52:03;;;;;;;10.18;8.27;;;;;;;13.08;76.05;99248.84;4292651;33;33896;-91
2023/05/12 07:54:40;;;;;;;12.00;8.48;;;;;;;13.29;75.92;99250.69;4292172;33;33536;-90
2023/05/12 07:57:11;;;;;;;9.20;7.53;;;;;;;13.05;76.13;99254.03;4292491;33;34170;-91
2023/05/12 08:00:03;;;;;;;11.20;8.00;;;;;;;13.20;75.18;99250.62;4282378;33;34236;-91
2023/05/12 08:02:42;;;;;;;11.98;8.43;;;;;;;13.16;76.16;99256.69;4281988;33;33885;-91
2023/05/12 08:05:12;;;;;;;10.73;7.95;;;;;;;13.29;74.84;99250.69;4280920;33;34542;-91
2023/05/12 08:07:46;;;;;;;12.65;8.43;;;;;;;13.28;74.85;99259.34;4281189;33;34210;-91
2023/05/12 08:10:36;;;;;;;10.27;7.05;;;;;;;13.28;74.13;99250.69;4281277;33;34209;-91
2023/05/12 08:13:13;;;;;;;13.15;7.65;;;;;;;13.24;72.80;99259.34;4281480;33;33020;-91
2023/05/12 08:15:52;;;;;;;12.18;8.80;;;;;;;13.04;74.97;99262.72;4292460;33;34485;-91
2023/05/12 08:18:22;;;;;;;16.13;8.80;;;;;;;13.31;75.47;99268.94;4292646;33;34750;-90
2023/05/12 08:20:54;;;;;;;14.32;8.65;;;;;;;13.22;74.33;99266.25;4280972;33;33583;-91
2023/05/12 08:23:28;;;;;;;10.13;7.82;;;;;;;13.65;73.05;99267.28;4292304;33;33017;-91
2023/05/12 08:26:05;;;;;;;14.38;9.18;;;;;;;13.62;73.16;99268.13;4280167;33;34347;-90
2023/05/12 08:28:54;;;;;;;11.95;8.40;;;;;;;13.68;72.96;99269.91;4293064;33;34975;-91
2023/05/12 08:31:31;;;;;;;12.52;8.20;;;;;;;13.83;73.67;99271.66;4292152;33;34179;-90
2023/05/12 08:34:02;;;;;;;9.77;8.25;;;;;;;14.05;71.89;99272.53;4280991;33;33289;-91
2023/05/12 08:36:42;;;;;;;13.05;7.53;;;;;;;13.41;73.49;99275.91;4281488;33;33396;-91
2023/05/12 08:39:27;;;;;;;9.95;7.10;;;;;;;13.59;72.54;99272.47;4269913;33;34343;-91
2023/05/12 08:42:36;;;;;;;12.75;8.15;;;;;;;13.52;72.07;99274.19;4295212;33;33930;-91
2023/05/12 08:45:24;;;;;;;11.10;7.90;;;;;;;13.59;73.02;99278.53;4283921;33;33313;-91
2023/05/12 08:48:03;;;;;;;16.17;8.82;;;;;;;14.05;71.02;99275.13;4281142;33;33887;-90
2023/05/12 08:50:51;;;;;;;10.95;7.85;;;;;;;13.84;72.46;99278.59;4290793;33;33994;-91
2023/05/12 08:53:28;;;;;;;12.60;8.95;;;;;;;14.03;71.26;99275.16;4292326;33;34275;-91
2023/05/12 08:56:02;;;;;;;14.38;8.52;;;;;;;13.87;72.71;99268.19;4289643;33;34573;-91
2023/05/12 08:58:43;;;;;;;;;;;;;;;13.92;72.11;99284.69;4281289;33;33985;-91
2023/05/12 09:01:18;;;;;;;10.07;8.55;;;;;;;14.21;71.75;99283.84;4303399;33;34196;-91
2023/05/12 09:03:51;;;;;;;12.47;9.40;;;;;;;13.71;71.19;99295.06;4281300;33;34524;-91
2023/05/12 09:06:33;;;;;;;14.05;8.73;;;;;;;13.31;73.07;99289.75;4284679;33;32849;-91
2023/05/12 09:09:06;;;;;;;11.20;8.30;;;;;;;13.12;73.58;99301.78;4288918;33;33729;-91
2023/05/12 09:11:40;;;;;;;11.98;8.77;;;;;;;13.06;73.18;99294.81;4288519;33;33612;-91
2023/05/12 09:14:19;;;;;;;10.77;7.90;;;;;;;13.63;72.01;99295.91;4304188;33;35328;-91
2023/05/12 09:17:12;;;;;;;12.00;8.38;;;;;;;13.37;73.45;99293.25;4283894;33;32775;-91
2023/05/12 09:19:48;;;;;;;11.55;8.32;;;;;;;13.35;72.76;99294.09;4281261;33;33551;-93
2023/05/12 09:22:41;;;;;;;9.13;6.78;;;;;;;13.58;72.44;99300.25;4294092;33;34406;-93
2023/05/12 09:25:21;;;;;;;10.50;7.80;;;;;;;13.69;71.19;99302.03;4292727;33;33936;-92
2023/05/12 09:27:58;;;;;;;9.48;6.60;;;;;;;13.74;70.60;99303.75;4291850;33;33621;-93
2023/05/12 09:30:37;;;;;;;10.25;7.43;;;;;;;13.88;70.58;99307.28;4280374;33;34242;-92
2023/05/12 09:33:13;;;;;;;13.02;7.22;;;;;;;13.96;71.33;99306.41;4291964;33;34516;-93
2023/05/12 09:35:52;;;;;;;12.43;7.22;;;;;;;14.19;71.09;99317.72;4280583;33;33474;-92
2023/05/12 09:38:33;;;;;;;9.27;7.15;;;;;;;13.73;70.59;99317.66;4279587;33;33397;-93
2023/05/12 09:41:24;;;;;;;9.20;6.90;;;;;;;13.48;72.01;99313.25;4280837;33;33227;-92
2023/05/12 09:44:07;;;;;;;11.57;8.00;;;;;;;13.30;72.29;99316.66;4281352;33;34031;-92
2023/05/12 09:46:47;;;;;;;10.68;7.35;;;;;;;13.20;73.76;99320.91;4280783;33;33836;-91
2023/05/12 09:49:27;;;;;;;10.50;9.00;;;;;;;12.97;73.78;99309.53;4292001;33;34021;-92
2023/05/12 09:52:07;;;;;;;11.98;8.45;;;;;;;13.25;74.43;99318.34;4281040;33;33604;-92
2023/05/12 09:55:03;;;;;;;10.30;8.02;;;;;;;13.30;74.23;99322.75;4269901;33;34520;-92
2023/05/12 09:57:40;;;;;;;10.95;8.07;;;;;;;13.29;72.88;99326.19;4303826;33;34826;-92
2023/05/12 10:00:32;;;;;;;10.73;7.83;;;;;;;12.89;75.04;99319.91;4281713;33;33104;-89
2023/05/12 10:03:29;;;;;;;11.03;7.50;;;;;;;12.65;75.01;99323.19;4294216;33;33827;-91
2023/05/12 10:06:18;;;;;;;11.38;7.85;;;;;;;12.78;74.75;99317.22;4279815;33;34608;-91
2023/05/12 10:09:09;;;;;;;10.85;6.72;;;;;;;12.66;75.20;99317.16;4292648;33;33864;-92
2023/05/12 10:12:03;;;;;;;10.30;7.55;;;;;;;12.26;75.17;99319.44;4281633;33;33790;-92
2023/05/12 10:14:49;;;;;;;10.50;7.37;;;;;;;12.44;75.89;99326.53;4280587;33;33398;-92
2023/05/12 10:17:43;;;;;;;13.43;8.15;;;;;;;12.80;74.87;99315.47;4279731;33;34037;-92
2023/05/12 10:20:20;;;;;;;10.02;7.30;;;;;;;12.70;75.69;99302.44;4291089;33;34104;-92
2023/05/12 10:23:15;;;;;;;9.18;7.20;;;;;;;12.66;75.10;99310.22;4281446;33;33499;-93
2023/05/12 10:25:51;;;;;;;10.45;6.62;;;;;;;12.34;74.97;99319.50;4279810;33;34314;-92
2023/05/12 10:29:04;;;;;;;10.15;8.07;;;;;;;12.07;76.41;99307.13;4291452;33;33505;-92
2023/05/12 10:31:42;;;;;;;13.02;8.95;;;;;;;12.20;77.65;99315.91;4291833;33;33865;-92
2023/05/12 10:34:21;;;;;;;11.15;9.40;;;;;;;12.34;77.36;99322.97;4280282;33;33540;-89
2023/05/12 10:36:57;;;;;;;14.23;11.18;;;;;;;12.69;77.52;99309.38;4278977;33;33451;-90
2023/05/12 10:39:35;;;;;;;13.10;11.12;;;;;;;12.62;78.26;99321.47;4291239;33;34991;-90
2023/05/12 10:42:25;;;;;;;17.02;10.70;;;;;;;12.87;78.53;99326.81;4292040;33;34400;-91
2023/05/12 10:45:04;;;;;;;16.20;11.93;;;;;;;12.37;79.15;99324.72;4280584;33;33577;-91
2023/05/12 10:47:43;;;;;;;15.98;12.60;;;;;;;12.43;80.24;99326.53;4279685;33;34550;-91
2023/05/12 10:50:30;;;;;;;14.25;11.52;;;;;;;12.64;79.59;99318.84;4290634;33;33823;-91
2023/05/12 10:53:11;;;;;;;12.85;11.35;;;;;;;12.62;79.09;99324.06;4291822;33;34231;-91
2023/05/12 10:55:50;;;;;;;16.67;12.05;;;;;;;12.86;78.55;99325.06;4294204;33;33387;-91
2023/05/12 10:58:28;;;;;;;16.80;12.45;;;;;;;12.30;79.71;99322.94;4275220;33;34639;-91
2023/05/12 11:01:08;;;;;;;14.05;12.30;;;;;;;12.35;80.49;99322.13;4282171;33;34070;-91
2023/05/12 11:04:12;;;;;;;13.02;11.45;;;;;;;12.52;80.82;99330.03;4294884;33;35075;-91
2023/05/12 11:06:57;;;;;;;14.43;11.82;;;;;;;12.58;79.44;99322.28;4280286;33;33180;-92
2023/05/12 11:09:43;;;;;;;18.98;12.82;;;;;;;12.71;77.88;99330.19;4294434;33;34910;-92
2023/05/12 11:12:26;;;;;;;15.68;13.52;;;;;;;12.65;79.33;99324.09;4294341;33;34149;-91
2023/05/12 11:15:09;;;;;;;17.25;11.75;;;;;;;12.72;79.22;99331.91;4282024;33;34692;-91
2023/05/12 11:17:50;;;;;;;15.20;12.30;;;;;;;12.80;78.09;99319.81;4292850;33;33867;-91
2023/05/12 11:20:28;;;;;;;15.82;13.40;;;;;;;12.69;79.09;99330.19;4292931;33;34112;-91
2023/05/12 11:22:58;;;;;;;16.23;13.27;;;;;;;12.67;80.16;99321.47;4292410;33;33699;-91
2023/05/12 11:25:34;;;;;;;16.85;14.55;;;;;;;12.71;79.87;99322.37;4293571;33;37010;-91
2023/05/12 11:28:40;;;;;;;16.92;13.20;;;;;;;13.12;77.89;99312.22;4304883;33;34269;-90
2023/05/12 11:31:21;;;;;;;15.50;12.60;;;;;;;12.99;77.66;99316.47;4292565;33;34301;-90
2023/05/12 11:34:15;;;;;;;15.50;12.75;;;;;;;13.28;77.26;99314.03;4281027;33;34443;-91
2023/05/12 11:37:00;;;;;;;16.12;12.07;;;;;;;13.23;76.02;99315.75;4281293;33;33886;-90
2023/05/12 11:39:51;;;;;;;17.40;12.32;;;;;;;12.94;76.38;99307.78;4285712;33;33394;-91
2023/05/12 11:42:32;;;;;;;16.33;12.27;;;;;;;12.90;76.29;99316.41;4269633;33;34442;-91
2023/05/12 11:45:05;;;;;;;15.65;12.32;;;;;;;12.90;76.88;99306.87;4269144;33;34289;-91
2023/05/12 11:47:46;;;;;;;15.77;13.23;;;;;;;12.45;78.60;99314.37;4280663;33;33729;-91
2023/05/12 11:50:47;;;;;;;15.40;12.73;;;;;;;13.14;77.18;99315.66;4292717;33;33407;-91
2023/05/12 11:53:23;;;;;;;14.87;12.82;;;;;;;12.76;77.99;99313.72;4281752;33;34642;-92
2023/05/12 11:56:01;;;;;;;17.05;13.43;;;;;;;12.81;77.49;99314.66;4282351;33;33921;-92
2023/05/12 11:58:33;;;;;;;18.33;13.30;;;;;;;12.82;78.48;99318.13;4270543;33;34249;-92
2023/05/12 12:01:15;;;;;;;16.37;13.70;;;;;;;12.20;80.51;99315.91;4292288;33;33330;-93
2023/05/12 12:03:47;;;;;;;16.20;13.05;;;;;;;12.38;80.88;99321.25;4269569;33;33594;-93
2023/05/12 12:06:22;;;;;;;16.45;13.27;;;;;;;12.37;80.72;99327.31;4292721;33;33798;-93
2023/05/12 12:08:59;;;;;;;15.05;13.27;;;;;;;12.41;81.26;99316.09;4281455;33;34433;-92
2023/05/12 12:12:11;;;;;;;18.98;14.40;;;;;;;12.44;80.58;99315.25;4291199;33;34000;-92
2023/05/12 12:15:13;;;;;;;18.65;14.15;;;;;;;12.61;80.70;99319.72;4292672;33;34002;-92
2023/05/12 12:17:50;;;;;;;15.43;13.35;;;;;;;12.61;80.01;99330.13;4292692;33;34916;-92
2023/05/12 12:20:42;;;;;;;15.63;13.23;;;;;;;12.40;80.71;99327.34;4283010;33;33600;-92
2023/05/12 12:23:20;;;;;;;18.08;14.35;;;;;;;12.35;81.56;99326.44;4281986;33;33271;-92
2023/05/12 12:25:54;;;;;;;16.65;12.60;;;;;;;12.27;81.41;99326.38;4292542;33;33500;-92
2023/05/12 12:28:36;;;;;;;16.50;12.82;;;;;;;12.55;79.90;99319.66;4303271;33;33822;-92
2023/05/12 12:31:10;;;;;;;16.83;14.13;;;;;;;12.17;81.57;99328.03;4280844;33;33746;-92
2023/05/12 12:33:46;;;;;;;16.27;13.93;;;;;;;12.08;81.56;99335.72;4292018;33;33946;-92
2023/05/12 12:36:28;;;;;;;14.75;13.00;;;;;;;12.28;81.85;99342.88;4293458;33;33375;-93
2023/05/12 12:39:10;;;;;;;16.58;12.98;;;;;;;12.33;80.82;99343.75;4280828;33;33902;-93
2023/05/12 12:42:15;;;;;;;17.48;13.27;;;;;;;12.24;81.33;99349.75;4283479;33;34512;-92
2023/05/12 12:44:53;;;;;;;15.57;13.30;;;;;;;12.17;81.72;99346.22;4292682;33;33495;-93
2023/05/12 12:47:37;;;;;;;13.77;12.20;;;;;;;12.28;81.40;99340.25;4275378;33;33953;-93
2023/05/12 12:50:09;;;;;;;28.52;13.82;;;;;;;12.06;81.86;99344.38;4268987;33;34235;-91
2023/05/12 12:52:48;;;;;;;15.88;11.60;;;;;;;11.99;82.51;99350.38;4292575;33;33677;-92
2023/05/12 12:55:45;;;;;;;14.52;12.43;;;;;;;12.31;80.75;99346.34;4299784;33;35029;-93
2023/05/12 12:59:06;;;;;;;15.35;12.88;;;;;;;12.34;80.76;99343.75;4279889;33;33699;-91
2023/05/12 13:02:19;;;;;;;13.73;12.30;;;;;;;12.52;79.41;99345.66;4305241;33;35149;-94
2023/05/12 13:05:08;;;;;;;17.30;13.13;;;;;;;12.16;80.59;99354.88;4305353;33;35048;-89
2023/05/12 13:08:11;;;;;;;16.58;13.27;;;;;;;12.01;82.66;99344.34;4295916;33;35028;-91
2023/05/12 13:10:53;;;;;;;16.15;13.43;;;;;;;12.32;81.52;99349.81;4294819;33;33439;-93
2023/05/12 13:13:37;;;;;;;15.77;12.85;;;;;;;12.46;80.75;99337.78;4293259;33;34584;-91
2023/05/12 13:17:53;;;;;;;20.27;15.27;;;;;;;12.12;81.19;99339.22;4300042;33;34018;-91
2023/05/12 13:20:43;;;;;;;15.93;13.30;;;;;;;12.44;81.06;99344.72;4294771;33;34146;-94
2023/05/12 13:23:31;;;;;;;15.45;12.90;;;;;;;12.43;80.92;99340.38;4277785;33;34244;-95
2023/05/12 13:27:07;;;;;;;16.62;13.73;;;;;;;12.20;82.11;99353.19;4290099;33;34437;-94
2023/05/12 13:29:58;;;;;;;18.23;13.52;;;;;;;12.32;82.10;99361.09;4269152;33;33319;-93
2023/05/12 13:32:55;;;;;;;17.45;13.07;;;;;;;12.47;81.56;99352.56;4280062;33;32964;-93
2023/05/12 13:35:54;;;;;;;14.57;12.37;;;;;;;12.57;80.51;99362.16;4304730;33;34375;-94
2023/05/12 13:38:41;;;;;;;15.25;11.45;;;;;;;12.52;80.60;99356.06;4282754;33;35788;-94
2023/05/12 13:41:27;;;;;;;13.68;11.80;;;;;;;12.41;81.25;99353.34;4292807;33;33779;-92
2023/05/12 13:44:11;;;;;;;16.27;12.10;;;;;;;12.24;82.25;99361.88;4283036;33;34020;-92
2023/05/12 13:46:47;;;;;;;15.48;11.85;;;;;;;12.53;81.04;99355.19;4293277;33;35422;-93
2023/05/12 13:49:18;;;;;;;16.27;13.20;;;;;;;12.57;81.52;99359.53;4292991;33;35087;-94
2023/05/12 13:52:00;;;;;;;15.27;12.63;;;;;;;12.49;81.89;99361.22;4304574;33;35283;-94
2023/05/12 13:54:41;;;;;;;17.05;13.32;;;;;;;12.73;80.96;99360.56;4281952;33;33469;-94
2023/05/12 13:57:29;;;;;;;14.93;12.30;;;;;;;13.04;80.03;99358.16;4270048;33;34264;-94
2023/05/12 14:00:04;;;;;;;16.12;12.40;;;;;;;12.92;79.34;99364.16;4292225;33;34038;-91
2023/05/12 14:02:47;;;;;;;16.25;12.55;;;;;;;13.30;78.67;99363.53;4283518;33;35480;-93
2023/05/12 14:05:34;;;;;;;16.62;13.48;;;;;;;13.09;78.82;99367.72;4303007;33;34343;-94
2023/05/12 14:08:10;;;;;;;16.33;13.45;;;;;;;13.21;78.36;99371.25;4292381;33;33934;-94
2023/05/12 14:11:04;;;;;;;43.10;31.77;;;;;;;13.57;77.39;99375.81;4291781;33;34480;-92